sensor_id;sensor_type;location;lat;lon;timestamp;pressure;altitude;pressure_sealevel;temperature;humidity
70370;BME280;57790;51.356;-2.906;2024-01-11T00:02:33;103424.38;;;4.95;100.00
70370;BME280;57790;51.356;-2.906;2024-01-11T00:05:33;103425.53;;;4.88;100.00
70370;BME280;57790;51.356;-2.906;2024-01-11T00:08:33;103421.06;;;4.90;100.00
70370;BME280;57790;51.356;-2.906;2024-01-11T00:11:34;103428.41;;;4.82;100.00
70370;BME280;57790;51.356;-2.906;2024-01-11T00:14:35;103417.16;;;4.78;100.00
70370;BME280;57790;51.356;-2.906;2024-01-11T00:17:36;103425.06;;;4.77;100.00
70370;BME280;57790;51.356;-2.906;2024-01-11T00:20:36;103410.66;;;4.87;100.00
70370;BME280;57790;51.356;-2.906;2024-01-11T00:23:37;103420.72;;;4.76;100.00
70370;BME280;57790;51.356;-2.906;2024-01-11T00:26:37;103416.19;;;4.81;100.00
70370;BME280;57790;51.356;-2.906;2024-01-11T00:29:38;103420.63;;;4.79;100.00
70370;BME280;57790;51.356;-2.906;2024-01-11T00:32:38;103415.53;;;4.74;100.00
70370;BME280;57790;51.356;-2.906;2024-01-11T00:35:38;103417.25;;;4.75;100.00
70370;BME280;57790;51.356;-2.906;2024-01-11T00:38:39;103422.44;;;4.77;100.00
70370;BME280;57790;51.356;-2.906;2024-01-11T00:41:40;103425.19;;;4.74;100.00
70370;BME280;57790;51.356;-2.906;2024-01-11T00:44:40;103418.06;;;4.77;100.00
70370;BME280;57790;51.356;-2.906;2024-01-11T00:47:41;103416.38;;;4.75;100.00
70370;BME280;57790;51.356;-2.906;2024-01-11T00:50:41;103417.75;;;4.63;100.00
70370;BME280;57790;51.356;-2.906;2024-01-11T00:53:42;103413.09;;;4.70;100.00
70370;BME280;57790;51.356;-2.906;2024-01-11T00:56:42;103408.88;;;4.66;100.00
70370;BME280;57790;51.356;-2.906;2024-01-11T00:59:42;103402.06;;;4.60;100.00
70370;BME280;57790;51.356;-2.906;2024-01-11T01:02:43;103414.13;;;4.66;100.00
70370;BME280;57790;51.356;-2.906;2024-01-11T01:05:43;103401.91;;;4.65;100.00
70370;BME280;57790;51.356;-2.906;2024-01-11T01:08:44;103413.22;;;4.67;100.00
70370;BME280;57790;51.356;-2.906;2024-01-11T01:11:44;103421.03;;;4.68;100.00
70370;BME280;57790;51.356;-2.906;2024-01-11T01:14:44;103428.06;;;4.68;100.00
70370;BME280;57790;51.356;-2.906;2024-01-11T01:17:45;103428.19;;;4.65;100.00
70370;BME280;57790;51.356;-2.906;2024-01-11T01:20:45;103428.06;;;4.68;100.00
70370;BME280;57790;51.356;-2.906;2024-01-11T01:23:45;103428.97;;;4.67;100.00
70370;BME280;57790;51.356;-2.906;2024-01-11T01:26:46;103440.28;;;4.69;100.00
70370;BME280;57790;51.356;-2.906;2024-01-11T01:29:46;103436.06;;;4.65;100.00
70370;BME280;57790;51.356;-2.906;2024-01-11T01:32:47;103439.69;;;4.61;100.00
70370;BME280;57790;51.356;-2.906;2024-01-11T01:35:47;103451.91;;;4.62;100.00
70370;BME280;57790;51.356;-2.906;2024-01-11T01:38:47;103456.22;;;4.64;100.00
70370;BME280;57790;51.356;-2.906;2024-01-11T01:41:48;103453.25;;;4.73;100.00
70370;BME280;57790;51.356;-2.906;2024-01-11T01:44:48;103458.22;;;4.58;100.00
70370;BME280;57790;51.356;-2.906;2024-01-11T01:47:48;103456.22;;;4.64;100.00
70370;BME280;57790;51.356;-2.906;2024-01-11T01:50:49;103456.50;;;4.57;100.00
70370;BME280;57790;51.356;-2.906;2024-01-11T01:53:53;103458.03;;;4.62;100.00
70370;BME280;57790;51.356;-2.906;2024-01-11T01:56:57;103453.63;;;4.63;100.00
70370;BME280;57790;51.356;-2.906;2024-01-11T01:59:58;103467.66;;;4.63;100.00
70370;BME280;57790;51.356;-2.906;2024-01-11T02:02:59;103462.44;;;4.62;100.00
70370;BME280;57790;51.356;-2.906;2024-01-11T02:05:59;103466.69;;;4.66;100.00
70370;BME280;57790;51.356;-2.906;2024-01-11T02:09:01;103467.31;;;4.47;100.00
70370;BME280;57790;51.356;-2.906;2024-01-11T02:12:05;103471.22;;;4.61;100.00
70370;BME280;57790;51.356;-2.906;2024-01-11T02:15:06;103487.22;;;4.55;100.00
70370;BME280;57790;51.356;-2.906;2024-01-11T02:18:10;103485.69;;;4.49;100.00
70370;BME280;57790;51.356;-2.906;2024-01-11T02:21:11;103489.72;;;4.58;100.00
70370;BME280;57790;51.356;-2.906;2024-01-11T02:24:14;103489.97;;;4.52;100.00
70370;BME280;57790;51.356;-2.906;2024-01-11T02:27:14;103499.25;;;4.60;100.00
70370;BME280;57790;51.356;-2.906;2024-01-11T02:30:16;103502.53;;;4.67;100.00
70370;BME280;57790;51.356;-2.906;2024-01-11T02:33:17;103506.88;;;4.68;100.00
70370;BME280;57790;51.356;-2.906;2024-01-11T02:36:20;103519.16;;;4.67;100.00
70370;BME280;57790;51.356;-2.906;2024-01-11T02:39:22;103518.06;;;4.73;100.00
70370;BME280;57790;51.356;-2.906;2024-01-11T02:42:23;103530.59;;;4.66;100.00
70370;BME280;57790;51.356;-2.906;2024-01-11T02:45:23;103538.66;;;4.60;100.00
70370;BME280;57790;51.356;-2.906;2024-01-11T02:48:28;103544.47;;;4.70;100.00
70370;BME280;57790;51.356;-2.906;2024-01-11T02:51:28;103542.56;;;4.73;100.00
70370;BME280;57790;51.356;-2.906;2024-01-11T02:54:29;103547.16;;;4.68;100.00
70370;BME280;57790;51.356;-2.906;2024-01-11T02:57:29;103549.84;;;4.67;100.00
70370;BME280;57790;51.356;-2.906;2024-01-11T03:00:31;103552.47;;;4.67;100.00
70370;BME280;57790;51.356;-2.906;2024-01-11T03:03:31;103561.81;;;4.74;100.00
70370;BME280;57790;51.356;-2.906;2024-01-11T03:06:31;103557.06;;;4.60;100.00
70370;BME280;57790;51.356;-2.906;2024-01-11T03:09:32;103563.81;;;4.67;100.00
70370;BME280;57790;51.356;-2.906;2024-01-11T03:12:33;103556.97;;;4.63;100.00
70370;BME280;57790;51.356;-2.906;2024-01-11T03:15:34;103557.84;;;4.62;100.00
70370;BME280;57790;51.356;-2.906;2024-01-11T03:18:34;103565.38;;;4.73;100.00
70370;BME280;57790;51.356;-2.906;2024-01-11T03:21:34;103568.13;;;4.70;100.00
70370;BME280;57790;51.356;-2.906;2024-01-11T03:24:38;103569.88;;;4.69;100.00
70370;BME280;57790;51.356;-2.906;2024-01-11T03:27:42;103568.91;;;4.72;100.00
70370;BME280;57790;51.356;-2.906;2024-01-11T03:30:43;103583.75;;;4.73;100.00
70370;BME280;57790;51.356;-2.906;2024-01-11T03:33:43;103576.00;;;4.70;100.00
70370;BME280;57790;51.356;-2.906;2024-01-11T03:36:44;103590.97;;;4.68;100.00
70370;BME280;57790;51.356;-2.906;2024-01-11T03:39:44;103591.88;;;4.67;100.00
70370;BME280;57790;51.356;-2.906;2024-01-11T03:42:44;103589.25;;;4.67;100.00
70370;BME280;57790;51.356;-2.906;2024-01-11T03:45:45;103598.78;;;4.69;100.00
70370;BME280;57790;51.356;-2.906;2024-01-11T03:48:45;103599.94;;;4.61;100.00
70370;BME280;57790;51.356;-2.906;2024-01-11T03:51:46;103607.81;;;4.61;100.00
70370;BME280;57790;51.356;-2.906;2024-01-11T03:54:46;103605.91;;;4.66;100.00
70370;BME280;57790;51.356;-2.906;2024-01-11T03:57:46;103614.06;;;4.58;100.00
70370;BME280;57790;51.356;-2.906;2024-01-11T04:00:47;103630.47;;;4.65;100.00
70370;BME280;57790;51.356;-2.906;2024-01-11T04:03:47;103624.56;;;4.58;100.00
70370;BME280;57790;51.356;-2.906;2024-01-11T04:06:51;103628.84;;;4.61;100.00
70370;BME280;57790;51.356;-2.906;2024-01-11T04:09:52;103630.47;;;4.65;100.00
70370;BME280;57790;51.356;-2.906;2024-01-11T04:12:52;103627.91;;;4.63;100.00
70370;BME280;57790;51.356;-2.906;2024-01-11T04:15:53;103630.56;;;4.62;100.00
70370;BME280;57790;51.356;-2.906;2024-01-11T04:18:53;103625.41;;;4.59;100.00
70370;BME280;57790;51.356;-2.906;2024-01-11T04:21:54;103628.25;;;4.53;100.00
70370;BME280;57790;51.356;-2.906;2024-01-11T04:24:54;103632.50;;;4.57;100.00
70370;BME280;57790;51.356;-2.906;2024-01-11T04:27:55;103639.47;;;4.58;100.00
70370;BME280;57790;51.356;-2.906;2024-01-11T04:30:55;103636.66;;;4.62;100.00
70370;BME280;57790;51.356;-2.906;2024-01-11T04:33:55;103632.38;;;4.60;100.00
70370;BME280;57790;51.356;-2.906;2024-01-11T04:36:56;103635.13;;;4.57;100.00
70370;BME280;57790;51.356;-2.906;2024-01-11T04:39:56;103638.56;;;4.59;100.00
70370;BME280;57790;51.356;-2.906;2024-01-11T04:43:00;103647.34;;;4.58;100.00
70370;BME280;57790;51.356;-2.906;2024-01-11T04:46:00;103655.34;;;4.55;100.00
70370;BME280;57790;51.356;-2.906;2024-01-11T04:49:00;103650.13;;;4.53;100.00
70370;BME280;57790;51.356;-2.906;2024-01-11T04:52:01;103647.75;;;4.45;100.00
70370;BME280;57790;51.356;-2.906;2024-01-11T04:55:01;103647.41;;;4.56;100.00
70370;BME280;57790;51.356;-2.906;2024-01-11T04:58:02;103653.41;;;4.60;100.00
70370;BME280;57790;51.356;-2.906;2024-01-11T05:01:02;103657.09;;;4.54;100.00
70370;BME280;57790;51.356;-2.906;2024-01-11T05:04:03;103660.69;;;4.52;100.00
70370;BME280;57790;51.356;-2.906;2024-01-11T05:07:03;103662.94;;;4.62;100.00
70370;BME280;57790;51.356;-2.906;2024-01-11T05:10:04;103663.91;;;4.60;100.00
70370;BME280;57790;51.356;-2.906;2024-01-11T05:13:05;103663.78;;;4.64;100.00
70370;BME280;57790;51.356;-2.906;2024-01-11T05:16:05;103666.41;;;4.64;100.00
70370;BME280;57790;51.356;-2.906;2024-01-11T05:19:05;103678.91;;;4.56;100.00
70370;BME280;57790;51.356;-2.906;2024-01-11T05:22:06;103681.31;;;4.64;100.00
70370;BME280;57790;51.356;-2.906;2024-01-11T05:25:06;103683.97;;;4.62;100.00
70370;BME280;57790;51.356;-2.906;2024-01-11T05:28:07;103696.22;;;4.63;100.00
70370;BME280;57790;51.356;-2.906;2024-01-11T05:31:09;103692.63;;;4.66;100.00
70370;BME280;57790;51.356;-2.906;2024-01-11T05:34:10;103693.31;;;4.71;100.00
70370;BME280;57790;51.356;-2.906;2024-01-11T05:37:13;103695.13;;;4.69;100.00
70370;BME280;57790;51.356;-2.906;2024-01-11T05:40:13;103693.38;;;4.69;100.00
70370;BME280;57790;51.356;-2.906;2024-01-11T05:43:14;103690.63;;;4.72;100.00
70370;BME280;57790;51.356;-2.906;2024-01-11T05:46:14;103692.34;;;4.73;100.00
70370;BME280;57790;51.356;-2.906;2024-01-11T05:49:14;103687.09;;;4.73;100.00
70370;BME280;57790;51.356;-2.906;2024-01-11T05:52:15;103691.53;;;4.71;100.00
70370;BME280;57790;51.356;-2.906;2024-01-11T05:55:16;103692.41;;;4.72;100.00
70370;BME280;57790;51.356;-2.906;2024-01-11T05:58:16;103696.75;;;4.73;100.00
70370;BME280;57790;51.356;-2.906;2024-01-11T06:01:16;103697.47;;;4.78;100.00
70370;BME280;57790;51.356;-2.906;2024-01-11T06:04:17;103705.34;;;4.78;100.00
70370;BME280;57790;51.356;-2.906;2024-01-11T06:07:17;103703.59;;;4.77;100.00
70370;BME280;57790;51.356;-2.906;2024-01-11T06:10:18;103707.97;;;4.78;100.00
70370;BME280;57790;51.356;-2.906;2024-01-11T06:13:18;103710.78;;;4.72;100.00
70370;BME280;57790;51.356;-2.906;2024-01-11T06:16:19;103716.91;;;4.72;100.00
70370;BME280;57790;51.356;-2.906;2024-01-11T06:19:19;103730.81;;;4.76;100.00
70370;BME280;57790;51.356;-2.906;2024-01-11T06:22:19;103732.50;;;4.77;100.00
70370;BME280;57790;51.356;-2.906;2024-01-11T06:25:20;103730.81;;;4.76;100.00
70370;BME280;57790;51.356;-2.906;2024-01-11T06:28:20;103732.72;;;4.71;100.00
70370;BME280;57790;51.356;-2.906;2024-01-11T06:31:20;103743.00;;;4.78;100.00
70370;BME280;57790;51.356;-2.906;2024-01-11T06:34:21;103737.78;;;4.77;100.00
70370;BME280;57790;51.356;-2.906;2024-01-11T06:37:21;103747.59;;;4.72;100.00
70370;BME280;57790;51.356;-2.906;2024-01-11T06:40:22;103744.03;;;4.73;100.00
70370;BME280;57790;51.356;-2.906;2024-01-11T06:43:24;103750.22;;;4.72;100.00
70370;BME280;57790;51.356;-2.906;2024-01-11T06:46:24;103758.31;;;4.66;100.00
70370;BME280;57790;51.356;-2.906;2024-01-11T06:49:24;103763.50;;;4.67;100.00
70370;BME280;57790;51.356;-2.906;2024-01-11T06:52:25;103764.97;;;4.76;100.00
70370;BME280;57790;51.356;-2.906;2024-01-11T06:55:25;103761.75;;;4.68;100.00
70370;BME280;57790;51.356;-2.906;2024-01-11T06:58:26;103771.22;;;4.72;100.00
70370;BME280;57790;51.356;-2.906;2024-01-11T07:01:26;103762.53;;;4.70;100.00
70370;BME280;57790;51.356;-2.906;2024-01-11T07:04:26;103775.63;;;4.71;100.00
70370;BME280;57790;51.356;-2.906;2024-01-11T07:07:27;103780.13;;;4.68;100.00
70370;BME280;57790;51.356;-2.906;2024-01-11T07:10:27;103781.84;;;4.69;100.00
70370;BME280;57790;51.356;-2.906;2024-01-11T07:13:28;103788.66;;;4.74;100.00
70370;BME280;57790;51.356;-2.906;2024-01-11T07:16:29;103786.25;;;4.68;100.00
70370;BME280;57790;51.356;-2.906;2024-01-11T07:19:29;103791.25;;;4.76;100.00
70370;BME280;57790;51.356;-2.906;2024-01-11T07:22:29;103807.00;;;4.76;100.00
70370;BME280;57790;51.356;-2.906;2024-01-11T07:25:30;103806.94;;;4.79;100.00
70370;BME280;57790;51.356;-2.906;2024-01-11T07:28:30;103812.25;;;4.76;100.00
70370;BME280;57790;51.356;-2.906;2024-01-11T07:31:31;103813.13;;;4.76;100.00
70370;BME280;57790;51.356;-2.906;2024-01-11T07:34:32;103817.50;;;4.77;100.00
70370;BME280;57790;51.356;-2.906;2024-01-11T07:37:32;103821.69;;;4.83;100.00
70370;BME280;57790;51.356;-2.906;2024-01-11T07:40:33;103828.81;;;4.80;100.00
70370;BME280;57790;51.356;-2.906;2024-01-11T07:43:33;103845.44;;;4.80;100.00
70370;BME280;57790;51.356;-2.906;2024-01-11T07:46:35;103833.88;;;4.86;100.00
70370;BME280;57790;51.356;-2.906;2024-01-11T07:49:36;103842.56;;;4.88;100.00
70370;BME280;57790;51.356;-2.906;2024-01-11T07:52:36;103853.88;;;4.90;100.00
70370;BME280;57790;51.356;-2.906;2024-01-11T07:55:37;103843.53;;;4.85;100.00
70370;BME280;57790;51.356;-2.906;2024-01-11T07:58:40;103849.75;;;4.83;100.00
70370;BME280;57790;51.356;-2.906;2024-01-11T08:01:41;103859.28;;;4.85;100.00
70370;BME280;57790;51.356;-2.906;2024-01-11T08:04:42;103844.28;;;4.89;100.00
70370;BME280;57790;51.356;-2.906;2024-01-11T08:07:43;103840.88;;;4.85;100.00
70370;BME280;57790;51.356;-2.906;2024-01-11T08:10:43;103848.63;;;4.90;100.00
70370;BME280;57790;51.356;-2.906;2024-01-11T08:13:43;103853.81;;;4.91;100.00
70370;BME280;57790;51.356;-2.906;2024-01-11T08:16:44;103848.56;;;4.91;100.00
70370;BME280;57790;51.356;-2.906;2024-01-11T08:19:44;103860.00;;;4.90;100.00
70370;BME280;57790;51.356;-2.906;2024-01-11T08:22:45;103857.38;;;4.90;100.00
70370;BME280;57790;51.356;-2.906;2024-01-11T08:25:47;103856.28;;;4.97;100.00
70370;BME280;57790;51.356;-2.906;2024-01-11T08:28:47;103860.84;;;4.92;100.00
70370;BME280;57790;51.356;-2.906;2024-01-11T08:31:48;103868.75;;;4.91;100.00
70370;BME280;57790;51.356;-2.906;2024-01-11T08:34:49;103870.56;;;4.89;100.00
70370;BME280;57790;51.356;-2.906;2024-01-11T08:37:49;103874.00;;;4.91;100.00
70370;BME280;57790;51.356;-2.906;2024-01-11T08:40:50;103870.50;;;4.90;100.00
70370;BME280;57790;51.356;-2.906;2024-01-11T08:43:50;103871.25;;;4.95;100.00
70370;BME280;57790;51.356;-2.906;2024-01-11T08:46:51;103879.22;;;4.92;100.00
70370;BME280;57790;51.356;-2.906;2024-01-11T08:49:52;103878.28;;;4.95;100.00
70370;BME280;57790;51.356;-2.906;2024-01-11T08:52:52;103893.13;;;4.96;100.00
70370;BME280;57790;51.356;-2.906;2024-01-11T08:55:55;103896.53;;;4.99;100.00
70370;BME280;57790;51.356;-2.906;2024-01-11T08:58:55;103898.06;;;5.06;100.00
70370;BME280;57790;51.356;-2.906;2024-01-11T09:01:58;103890.19;;;5.06;100.00
70370;BME280;57790;51.356;-2.906;2024-01-11T09:04:58;103884.94;;;5.05;100.00
70370;BME280;57790;51.356;-2.906;2024-01-11T09:07:59;103900.47;;;5.13;100.00
70370;BME280;57790;51.356;-2.906;2024-01-11T09:10:59;103902.25;;;5.12;100.00
70370;BME280;57790;51.356;-2.906;2024-01-11T09:14:00;103911.00;;;5.13;100.00
70370;BME280;57790;51.356;-2.906;2024-01-11T09:17:00;103907.31;;;5.18;100.00
70370;BME280;57790;51.356;-2.906;2024-01-11T09:20:00;103914.25;;;5.21;100.00
70370;BME280;57790;51.356;-2.906;2024-01-11T09:23:01;103917.88;;;5.17;100.00
70370;BME280;57790;51.356;-2.906;2024-01-11T09:26:04;103915.94;;;5.23;100.00
70370;BME280;57790;51.356;-2.906;2024-01-11T09:29:05;103912.50;;;5.21;100.00
70370;BME280;57790;51.356;-2.906;2024-01-11T09:32:05;103911.63;;;5.21;100.00
70370;BME280;57790;51.356;-2.906;2024-01-11T09:35:06;103919.25;;;5.28;100.00
70370;BME280;57790;51.356;-2.906;2024-01-11T09:38:06;103921.03;;;5.28;100.00
70370;BME280;57790;51.356;-2.906;2024-01-11T09:41:09;103926.25;;;5.29;100.00
70370;BME280;57790;51.356;-2.906;2024-01-11T09:44:11;103927.25;;;5.25;100.00
70370;BME280;57790;51.356;-2.906;2024-01-11T09:47:11;103924.69;;;5.24;100.00
70370;BME280;57790;51.356;-2.906;2024-01-11T09:50:13;103936.72;;;5.31;100.00
70370;BME280;57790;51.356;-2.906;2024-01-11T09:53:21;103941.91;;;5.32;100.00
70370;BME280;57790;51.356;-2.906;2024-01-11T09:56:25;103937.47;;;5.34;100.00
70370;BME280;57790;51.356;-2.906;2024-01-11T09:59:28;103949.69;;;5.37;100.00
70370;BME280;57790;51.356;-2.906;2024-01-11T10:02:28;103952.69;;;5.25;100.00
70370;BME280;57790;51.356;-2.906;2024-01-11T10:05:29;103965.75;;;5.28;100.00
70370;BME280;57790;51.356;-2.906;2024-01-11T10:08:30;103975.47;;;5.26;100.00
70370;BME280;57790;51.356;-2.906;2024-01-11T10:11:31;103978.91;;;5.28;100.00
70370;BME280;57790;51.356;-2.906;2024-01-11T10:14:34;103991.88;;;5.32;100.00
70370;BME280;57790;51.356;-2.906;2024-01-11T10:17:34;103990.22;;;5.30;100.00
70370;BME280;57790;51.356;-2.906;2024-01-11T10:20:35;104002.41;;;5.32;100.00
70370;BME280;57790;51.356;-2.906;2024-01-11T10:23:35;103999.13;;;5.26;100.00
70370;BME280;57790;51.356;-2.906;2024-01-11T10:26:36;104011.91;;;5.38;100.00
70370;BME280;57790;51.356;-2.906;2024-01-11T10:29:36;104011.22;;;5.31;100.00
70370;BME280;57790;51.356;-2.906;2024-01-11T10:32:37;104011.97;;;5.36;100.00
70370;BME280;57790;51.356;-2.906;2024-01-11T10:35:38;104025.00;;;5.40;100.00
70370;BME280;57790;51.356;-2.906;2024-01-11T10:38:39;104023.22;;;5.40;100.00
70370;BME280;57790;51.356;-2.906;2024-01-11T10:41:40;104027.59;;;5.41;100.00
70370;BME280;57790;51.356;-2.906;2024-01-11T10:44:46;104028.66;;;5.34;100.00
70370;BME280;57790;51.356;-2.906;2024-01-11T10:48:02;104034.78;;;5.36;100.00
70370;BME280;57790;51.356;-2.906;2024-01-11T10:51:08;104039.03;;;5.40;100.00
70370;BME280;57790;51.356;-2.906;2024-01-11T10:54:12;104033.94;;;5.34;100.00
70370;BME280;57790;51.356;-2.906;2024-01-11T10:57:16;104035.59;;;5.38;100.00
70370;BME280;57790;51.356;-2.906;2024-01-11T11:00:17;104035.53;;;5.40;100.00
70370;BME280;57790;51.356;-2.906;2024-01-11T11:03:19;104038.22;;;5.38;100.00
70370;BME280;57790;51.356;-2.906;2024-01-11T11:06:22;104041.69;;;5.38;100.00
70370;BME280;57790;51.356;-2.906;2024-01-11T11:09:23;104043.31;;;5.43;100.00
70370;BME280;57790;51.356;-2.906;2024-01-11T11:12:24;104042.78;;;5.31;100.00
70370;BME280;57790;51.356;-2.906;2024-01-11T11:15:27;104038.09;;;5.41;100.00
70370;BME280;57790;51.356;-2.906;2024-01-11T11:18:27;104032.84;;;5.41;100.00
70370;BME280;57790;51.356;-2.906;2024-01-11T11:21:28;104042.19;;;5.51;100.00
70370;BME280;57790;51.356;-2.906;2024-01-11T11:24:28;104044.88;;;5.48;100.00
70370;BME280;57790;51.356;-2.906;2024-01-11T11:27:30;104039.69;;;5.47;100.00
70370;BME280;57790;51.356;-2.906;2024-01-11T11:30:31;104047.34;;;5.54;100.00
70370;BME280;57790;51.356;-2.906;2024-01-11T11:33:31;104037.69;;;5.55;100.00
70370;BME280;57790;51.356;-2.906;2024-01-11T11:36:33;104040.25;;;5.56;100.00
70370;BME280;57790;51.356;-2.906;2024-01-11T11:39:34;104041.13;;;5.57;100.00
70370;BME280;57790;51.356;-2.906;2024-01-11T11:42:35;104043.53;;;5.64;100.00
70370;BME280;57790;51.356;-2.906;2024-01-11T11:45:37;104040.00;;;5.64;100.00
70370;BME280;57790;51.356;-2.906;2024-01-11T11:51:43;104046.75;;;5.73;100.00
70370;BME280;57790;51.356;-2.906;2024-01-11T11:54:43;104037.94;;;5.74;100.00
70370;BME280;57790;51.356;-2.906;2024-01-11T11:57:45;104048.13;;;5.84;100.00
70370;BME280;57790;51.356;-2.906;2024-01-11T12:00:46;104047.50;;;5.76;100.00
70370;BME280;57790;51.356;-2.906;2024-01-11T12:03:48;104055.22;;;5.82;100.00
70370;BME280;57790;51.356;-2.906;2024-01-11T12:06:51;104048.84;;;5.89;100.00
70370;BME280;57790;51.356;-2.906;2024-01-11T12:09:52;104048.94;;;5.86;100.00
70370;BME280;57790;51.356;-2.906;2024-01-11T12:12:52;104062.91;;;5.90;100.00
70370;BME280;57790;51.356;-2.906;2024-01-11T12:15:53;104058.38;;;5.95;100.00
70370;BME280;57790;51.356;-2.906;2024-01-11T12:18:53;104057.69;;;5.87;100.00
70370;BME280;57790;51.356;-2.906;2024-01-11T12:21:54;104054.09;;;5.91;100.00
70370;BME280;57790;51.356;-2.906;2024-01-11T12:24:55;104051.28;;;5.97;100.00
70370;BME280;57790;51.356;-2.906;2024-01-11T12:27:56;104055.56;;;6.00;100.00
70370;BME280;57790;51.356;-2.906;2024-01-11T12:30:56;104054.75;;;5.97;100.00
70370;BME280;57790;51.356;-2.906;2024-01-11T12:33:57;104049.34;;;6.02;100.00
70370;BME280;57790;51.356;-2.906;2024-01-11T12:36:57;104051.28;;;5.97;100.00
70370;BME280;57790;51.356;-2.906;2024-01-11T12:40:00;104045.78;;;6.03;100.00
70370;BME280;57790;51.356;-2.906;2024-01-11T12:43:01;104048.59;;;5.99;100.00
70370;BME280;57790;51.356;-2.906;2024-01-11T12:46:02;104054.44;;;6.07;100.00
70370;BME280;57790;51.356;-2.906;2024-01-11T12:49:02;104050.69;;;6.14;100.00
70370;BME280;57790;51.356;-2.906;2024-01-11T12:52:03;104049.94;;;6.10;100.00
70370;BME280;57790;51.356;-2.906;2024-01-11T12:55:06;104057.97;;;6.06;100.00
70370;BME280;57790;51.356;-2.906;2024-01-11T12:58:08;104053.22;;;6.17;100.00
70370;BME280;57790;51.356;-2.906;2024-01-11T13:01:11;104051.25;;;6.23;100.00
70370;BME280;57790;51.356;-2.906;2024-01-11T13:04:12;104042.63;;;6.18;100.00
70370;BME280;57790;51.356;-2.906;2024-01-11T13:07:13;104057.53;;;6.19;100.00
70370;BME280;57790;51.356;-2.906;2024-01-11T13:10:16;104052.19;;;6.21;100.00
70370;BME280;57790;51.356;-2.906;2024-01-11T13:13:17;104057.53;;;6.19;100.00
70370;BME280;57790;51.356;-2.906;2024-01-11T13:16:17;104055.75;;;6.20;100.00
70370;BME280;57790;51.356;-2.906;2024-01-11T13:19:19;104050.47;;;6.20;100.00
70370;BME280;57790;51.356;-2.906;2024-01-11T13:22:19;104048.63;;;6.23;100.00
70370;BME280;57790;51.356;-2.906;2024-01-11T13:25:20;104044.00;;;6.30;100.00
70370;BME280;57790;51.356;-2.906;2024-01-11T13:28:20;104043.94;;;6.32;100.00
70370;BME280;57790;51.356;-2.906;2024-01-11T13:31:20;104044.66;;;6.37;100.00
70370;BME280;57790;51.356;-2.906;2024-01-11T13:34:21;104042.81;;;6.39;100.00
70370;BME280;57790;51.356;-2.906;2024-01-11T13:37:21;104042.91;;;6.36;100.00
70370;BME280;57790;51.356;-2.906;2024-01-11T13:40:22;104036.66;;;6.40;100.00
70370;BME280;57790;51.356;-2.906;2024-01-11T13:43:22;104045.72;;;6.31;100.00
70370;BME280;57790;51.356;-2.906;2024-01-11T13:46:23;104041.97;;;6.38;100.00
70370;BME280;57790;51.356;-2.906;2024-01-11T13:49:23;104039.16;;;6.43;100.00
70370;BME280;57790;51.356;-2.906;2024-01-11T13:52:25;104040.19;;;6.39;100.00
70370;BME280;57790;51.356;-2.906;2024-01-11T13:55:25;104039.16;;;6.43;100.00
70370;BME280;57790;51.356;-2.906;2024-01-11T13:58:25;104033.59;;;6.50;100.00
70370;BME280;57790;51.356;-2.906;2024-01-11T14:01:26;104042.53;;;6.46;100.00
70370;BME280;57790;51.356;-2.906;2024-01-11T14:04:26;104038.00;;;6.50;100.00
70370;BME280;57790;51.356;-2.906;2024-01-11T14:07:27;104047.69;;;6.51;100.00
70370;BME280;57790;51.356;-2.906;2024-01-11T14:10:27;104047.69;;;6.49;100.00
70370;BME280;57790;51.356;-2.906;2024-01-11T14:13:28;104045.22;;;6.45;100.00
70370;BME280;57790;51.356;-2.906;2024-01-11T14:16:28;104044.19;;;6.49;100.00
70370;BME280;57790;51.356;-2.906;2024-01-11T14:19:29;104045.97;;;6.48;100.00
70370;BME280;57790;51.356;-2.906;2024-01-11T14:22:29;104060.72;;;6.54;100.00
70370;BME280;57790;51.356;-2.906;2024-01-11T14:25:29;104055.47;;;6.54;100.00
70370;BME280;57790;51.356;-2.906;2024-01-11T14:28:30;104059.03;;;6.53;100.00
70370;BME280;57790;51.356;-2.906;2024-01-11T14:31:31;104065.28;;;6.49;100.00
70370;BME280;57790;51.356;-2.906;2024-01-11T14:34:31;104058.53;;;6.42;100.00
70370;BME280;57790;51.356;-2.906;2024-01-11T14:37:33;104054.00;;;6.45;100.00
70370;BME280;57790;51.356;-2.906;2024-01-11T14:40:33;104060.06;;;6.47;100.00
70370;BME280;57790;51.356;-2.906;2024-01-11T14:43:34;104061.53;;;6.56;100.00
70370;BME280;57790;51.356;-2.906;2024-01-11T14:46:35;104059.69;;;6.58;100.00
70370;BME280;57790;51.356;-2.906;2024-01-11T14:49:36;104063.31;;;6.55;100.00
70370;BME280;57790;51.356;-2.906;2024-01-11T14:52:36;104063.38;;;6.54;100.00
70370;BME280;57790;51.356;-2.906;2024-01-11T14:55:38;104071.16;;;6.57;100.00
70370;BME280;57790;51.356;-2.906;2024-01-11T14:58:39;104063.31;;;6.55;100.00
70370;BME280;57790;51.356;-2.906;2024-01-11T15:01:39;104075.47;;;6.60;100.00
70370;BME280;57790;51.356;-2.906;2024-01-11T15:04:39;104071.00;;;6.62;100.00
70370;BME280;57790;51.356;-2.906;2024-01-11T15:07:40;104066.44;;;6.67;100.00
70370;BME280;57790;51.356;-2.906;2024-01-11T15:10:40;104075.16;;;6.69;100.00
70370;BME280;57790;51.356;-2.906;2024-01-11T15:13:42;104070.78;;;6.68;100.00
70370;BME280;57790;51.356;-2.906;2024-01-11T15:16:43;104062.88;;;6.68;100.00
70370;BME280;57790;51.356;-2.906;2024-01-11T15:19:48;104066.25;;;6.71;100.00
70370;BME280;57790;51.356;-2.906;2024-01-11T15:22:48;104064.38;;;6.75;100.00
70370;BME280;57790;51.356;-2.906;2024-01-11T15:25:48;104064.38;;;6.75;100.00
70370;BME280;57790;51.356;-2.906;2024-01-11T15:28:49;104056.84;;;6.64;100.00
70370;BME280;57790;51.356;-2.906;2024-01-11T15:31:49;104057.69;;;6.65;100.00
70370;BME280;57790;51.356;-2.906;2024-01-11T15:34:50;104059.38;;;6.67;100.00
70370;BME280;57790;51.356;-2.906;2024-01-11T15:37:50;104057.63;;;6.68;100.00